sensor_id;sensor_type;location;lat;lon;timestamp;P1;durP1;ratioP1;P2;durP2;ratioP2
4021;SDS011;2025;48.260;16.432;2022-11-23T00:01:57;30.83;;;14.57;;
4021;SDS011;2025;48.260;16.432;2022-11-23T00:04:24;32.05;;;13.75;;
4021;SDS011;2025;48.260;16.432;2022-11-23T00:06:51;35.60;;;15.50;;
4021;SDS011;2025;48.260;16.432;2022-11-23T00:09:18;34.55;;;14.18;;
4021;SDS011;2025;48.260;16.432;2022-11-23T00:11:46;31.98;;;13.75;;
4021;SDS011;2025;48.260;16.432;2022-11-23T00:14:13;33.05;;;14.85;;
4021;SDS011;2025;48.260;16.432;2022-11-23T00:16:40;33.28;;;14.25;;
4021;SDS011;2025;48.260;16.432;2022-11-23T00:19:07;31.10;;;14.07;;
4021;SDS011;2025;48.260;16.432;2022-11-23T00:21:34;37.95;;;14.68;;
4021;SDS011;2025;48.260;16.432;2022-11-23T00:24:01;36.53;;;14.40;;
4021;SDS011;2025;48.260;16.432;2022-11-23T00:26:29;34.50;;;14.57;;
4021;SDS011;2025;48.260;16.432;2022-11-23T00:28:57;34.35;;;14.82;;
4021;SDS011;2025;48.260;16.432;2022-11-23T00:31:24;33.45;;;14.18;;
4021;SDS011;2025;48.260;16.432;2022-11-23T00:33:51;36.90;;;14.35;;
4021;SDS011;2025;48.260;16.432;2022-11-23T00:36:20;39.35;;;15.40;;
4021;SDS011;2025;48.260;16.432;2022-11-23T00:38:48;36.50;;;15.57;;
4021;SDS011;2025;48.260;16.432;2022-11-23T00:41:16;33.90;;;13.98;;
4021;SDS011;2025;48.260;16.432;2022-11-23T00:46:47;37.13;;;15.05;;
4021;SDS011;2025;48.260;16.432;2022-11-23T00:49:14;35.95;;;14.77;;
4021;SDS011;2025;48.260;16.432;2022-11-23T00:51:41;38.33;;;14.93;;
4021;SDS011;2025;48.260;16.432;2022-11-23T00:54:08;34.40;;;15.18;;
4021;SDS011;2025;48.260;16.432;2022-11-23T00:56:35;42.47;;;14.15;;
4021;SDS011;2025;48.260;16.432;2022-11-23T00:59:02;37.67;;;14.82;;
4021;SDS011;2025;48.260;16.432;2022-11-23T01:01:32;39.58;;;18.00;;
4021;SDS011;2025;48.260;16.432;2022-11-23T01:04:01;32.88;;;14.30;;
4021;SDS011;2025;48.260;16.432;2022-11-23T01:06:30;39.90;;;14.60;;
4021;SDS011;2025;48.260;16.432;2022-11-23T01:08:59;37.50;;;14.85;;
4021;SDS011;2025;48.260;16.432;2022-11-23T01:11:28;36.17;;;16.02;;
4021;SDS011;2025;48.260;16.432;2022-11-23T01:13:56;37.38;;;16.55;;
4021;SDS011;2025;48.260;16.432;2022-11-23T01:16:24;35.67;;;14.48;;
4021;SDS011;2025;48.260;16.432;2022-11-23T01:18:54;36.63;;;15.88;;
4021;SDS011;2025;48.260;16.432;2022-11-23T01:21:22;37.70;;;15.45;;
4021;SDS011;2025;48.260;16.432;2022-11-23T01:23:52;37.08;;;15.23;;
4021;SDS011;2025;48.260;16.432;2022-11-23T01:26:20;37.17;;;18.10;;
4021;SDS011;2025;48.260;16.432;2022-11-23T01:28:47;40.17;;;16.20;;
4021;SDS011;2025;48.260;16.432;2022-11-23T01:31:15;39.67;;;15.88;;
4021;SDS011;2025;48.260;16.432;2022-11-23T01:33:43;38.50;;;14.57;;
4021;SDS011;2025;48.260;16.432;2022-11-23T01:36:12;38.95;;;18.33;;
4021;SDS011;2025;48.260;16.432;2022-11-23T01:38:42;42.03;;;16.73;;
4021;SDS011;2025;48.260;16.432;2022-11-23T01:41:11;39.65;;;16.10;;
4021;SDS011;2025;48.260;16.432;2022-11-23T01:43:40;39.10;;;17.67;;
4021;SDS011;2025;48.260;16.432;2022-11-23T01:46:07;38.00;;;16.95;;
4021;SDS011;2025;48.260;16.432;2022-11-23T01:48:35;42.80;;;15.98;;
4021;SDS011;2025;48.260;16.432;2022-11-23T01:51:05;42.15;;;16.63;;
4021;SDS011;2025;48.260;16.432;2022-11-23T01:53:36;41.63;;;17.42;;
4021;SDS011;2025;48.260;16.432;2022-11-23T01:56:05;41.72;;;14.77;;
4021;SDS011;2025;48.260;16.432;2022-11-23T01:58:34;40.28;;;17.27;;
4021;SDS011;2025;48.260;16.432;2022-11-23T02:01:04;44.55;;;16.38;;
4021;SDS011;2025;48.260;16.432;2022-11-23T02:03:31;40.08;;;14.18;;
4021;SDS011;2025;48.260;16.432;2022-11-23T02:06:03;34.65;;;13.18;;
4021;SDS011;2025;48.260;16.432;2022-11-23T02:08:36;41.15;;;16.85;;
4021;SDS011;2025;48.260;16.432;2022-11-23T02:11:04;41.38;;;16.27;;
4021;SDS011;2025;48.260;16.432;2022-11-23T02:13:31;39.03;;;15.80;;
4021;SDS011;2025;48.260;16.432;2022-11-23T02:15:58;43.60;;;16.60;;
4021;SDS011;2025;48.260;16.432;2022-11-23T02:18:26;46.03;;;16.77;;
4021;SDS011;2025;48.260;16.432;2022-11-23T02:20:55;44.00;;;17.50;;
4021;SDS011;2025;48.260;16.432;2022-11-23T02:23:29;45.90;;;16.63;;
4021;SDS011;2025;48.260;16.432;2022-11-23T02:26:04;43.10;;;17.65;;
4021;SDS011;2025;48.260;16.432;2022-11-23T02:28:35;45.90;;;17.75;;
4021;SDS011;2025;48.260;16.432;2022-11-23T02:31:05;44.28;;;17.13;;
4021;SDS011;2025;48.260;16.432;2022-11-23T02:33:32;41.97;;;17.20;;
4021;SDS011;2025;48.260;16.432;2022-11-23T02:35:59;40.78;;;15.35;;
4021;SDS011;2025;48.260;16.432;2022-11-23T02:38:27;40.42;;;16.10;;
4021;SDS011;2025;48.260;16.432;2022-11-23T02:40:57;39.38;;;14.90;;
4021;SDS011;2025;48.260;16.432;2022-11-23T02:43:26;44.92;;;18.00;;
4021;SDS011;2025;48.260;16.432;2022-11-23T02:45:53;39.72;;;16.17;;
4021;SDS011;2025;48.260;16.432;2022-11-23T02:48:22;39.72;;;14.98;;
4021;SDS011;2025;48.260;16.432;2022-11-23T02:50:49;36.70;;;16.13;;
4021;SDS011;2025;48.260;16.432;2022-11-23T02:53:17;40.72;;;17.08;;
4021;SDS011;2025;48.260;16.432;2022-11-23T02:55:44;37.20;;;18.35;;
4021;SDS011;2025;48.260;16.432;2022-11-23T02:58:11;35.90;;;15.57;;
4021;SDS011;2025;48.260;16.432;2022-11-23T03:00:40;38.05;;;15.68;;
4021;SDS011;2025;48.260;16.432;2022-11-23T03:03:07;36.10;;;14.30;;
4021;SDS011;2025;48.260;16.432;2022-11-23T03:05:34;32.60;;;13.55;;
4021;SDS011;2025;48.260;16.432;2022-11-23T03:08:01;35.80;;;13.77;;
4021;SDS011;2025;48.260;16.432;2022-11-23T03:10:28;32.58;;;15.20;;
4021;SDS011;2025;48.260;16.432;2022-11-23T03:12:55;36.05;;;14.32;;
4021;SDS011;2025;48.260;16.432;2022-11-23T03:15:23;31.90;;;12.27;;
4021;SDS011;2025;48.260;16.432;2022-11-23T03:17:51;32.30;;;12.27;;
4021;SDS011;2025;48.260;16.432;2022-11-23T03:20:18;29.80;;;13.32;;
4021;SDS011;2025;48.260;16.432;2022-11-23T03:22:45;29.08;;;11.75;;
4021;SDS011;2025;48.260;16.432;2022-11-23T03:25:13;31.33;;;12.38;;
4021;SDS011;2025;48.260;16.432;2022-11-23T03:27:40;28.35;;;12.20;;
4021;SDS011;2025;48.260;16.432;2022-11-23T03:30:07;27.35;;;11.80;;
4021;SDS011;2025;48.260;16.432;2022-11-23T03:32:35;27.17;;;12.30;;
4021;SDS011;2025;48.260;16.432;2022-11-23T03:35:04;26.50;;;12.65;;
4021;SDS011;2025;48.260;16.432;2022-11-23T03:37:33;27.42;;;13.15;;
4021;SDS011;2025;48.260;16.432;2022-11-23T03:40:00;23.55;;;10.23;;
4021;SDS011;2025;48.260;16.432;2022-11-23T03:42:27;27.83;;;10.73;;
4021;SDS011;2025;48.260;16.432;2022-11-23T03:44:53;22.88;;;10.38;;
4021;SDS011;2025;48.260;16.432;2022-11-23T03:47:21;25.05;;;10.55;;
4021;SDS011;2025;48.260;16.432;2022-11-23T03:49:47;26.60;;;11.43;;
4021;SDS011;2025;48.260;16.432;2022-11-23T03:52:16;25.10;;;11.27;;
4021;SDS011;2025;48.260;16.432;2022-11-23T03:54:43;27.30;;;13.52;;
4021;SDS011;2025;48.260;16.432;2022-11-23T03:57:11;29.23;;;11.50;;
4021;SDS011;2025;48.260;16.432;2022-11-23T03:59:38;29.05;;;12.73;;
4021;SDS011;2025;48.260;16.432;2022-11-23T04:02:05;27.58;;;12.77;;
4021;SDS011;2025;48.260;16.432;2022-11-23T04:04:33;26.17;;;11.45;;
4021;SDS011;2025;48.260;16.432;2022-11-23T04:07:00;28.35;;;12.23;;
4021;SDS011;2025;48.260;16.432;2022-11-23T04:09:28;32.30;;;11.88;;
4021;SDS011;2025;48.260;16.432;2022-11-23T04:11:55;28.00;;;10.90;;
4021;SDS011;2025;48.260;16.432;2022-11-23T04:14:22;29.88;;;11.25;;
4021;SDS011;2025;48.260;16.432;2022-11-23T04:16:49;29.80;;;12.18;;
4021;SDS011;2025;48.260;16.432;2022-11-23T04:19:16;30.05;;;11.57;;
4021;SDS011;2025;48.260;16.432;2022-11-23T04:21:43;35.03;;;13.40;;
4021;SDS011;2025;48.260;16.432;2022-11-23T04:24:10;32.58;;;12.35;;
4021;SDS011;2025;48.260;16.432;2022-11-23T04:26:38;29.58;;;11.95;;
4021;SDS011;2025;48.260;16.432;2022-11-23T04:29:05;30.70;;;14.20;;
4021;SDS011;2025;48.260;16.432;2022-11-23T04:31:32;33.72;;;13.02;;
4021;SDS011;2025;48.260;16.432;2022-11-23T04:33:59;39.70;;;13.60;;
4021;SDS011;2025;48.260;16.432;2022-11-23T04:36:26;36.72;;;14.75;;
4021;SDS011;2025;48.260;16.432;2022-11-23T04:38:53;36.33;;;14.68;;
4021;SDS011;2025;48.260;16.432;2022-11-23T04:41:20;35.38;;;13.07;;
4021;SDS011;2025;48.260;16.432;2022-11-23T04:43:50;32.67;;;13.35;;
4021;SDS011;2025;48.260;16.432;2022-11-23T04:46:17;34.20;;;18.33;;
4021;SDS011;2025;48.260;16.432;2022-11-23T04:48:44;35.47;;;15.23;;
4021;SDS011;2025;48.260;16.432;2022-11-23T04:51:12;37.70;;;13.45;;
4021;SDS011;2025;48.260;16.432;2022-11-23T04:53:40;36.80;;;15.07;;
4021;SDS011;2025;48.260;16.432;2022-11-23T04:56:07;34.55;;;14.10;;
4021;SDS011;2025;48.260;16.432;2022-11-23T04:58:34;35.78;;;16.17;;
4021;SDS011;2025;48.260;16.432;2022-11-23T05:01:03;31.67;;;13.68;;
4021;SDS011;2025;48.260;16.432;2022-11-23T05:03:30;34.60;;;13.75;;
4021;SDS011;2025;48.260;16.432;2022-11-23T05:05:59;34.00;;;13.20;;
4021;SDS011;2025;48.260;16.432;2022-11-23T05:08:26;32.10;;;13.40;;
4021;SDS011;2025;48.260;16.432;2022-11-23T05:10:53;31.08;;;12.25;;
4021;SDS011;2025;48.260;16.432;2022-11-23T05:13:20;35.60;;;13.77;;
4021;SDS011;2025;48.260;16.432;2022-11-23T05:15:47;34.05;;;13.48;;
4021;SDS011;2025;48.260;16.432;2022-11-23T05:18:15;31.02;;;14.88;;
4021;SDS011;2025;48.260;16.432;2022-11-23T05:20:42;34.25;;;13.25;;
4021;SDS011;2025;48.260;16.432;2022-11-23T05:23:10;37.58;;;14.05;;
4021;SDS011;2025;48.260;16.432;2022-11-23T05:25:38;29.13;;;11.23;;
4021;SDS011;2025;48.260;16.432;2022-11-23T05:28:05;31.73;;;11.68;;
4021;SDS011;2025;48.260;16.432;2022-11-23T05:30:32;30.90;;;12.95;;
4021;SDS011;2025;48.260;16.432;2022-11-23T05:32:59;34.30;;;13.20;;
4021;SDS011;2025;48.260;16.432;2022-11-23T05:35:28;30.50;;;13.07;;
4021;SDS011;2025;48.260;16.432;2022-11-23T05:37:56;31.83;;;12.75;;
4021;SDS011;2025;48.260;16.432;2022-11-23T05:40:23;36.90;;;12.90;;
4021;SDS011;2025;48.260;16.432;2022-11-23T05:42:53;33.15;;;13.20;;
4021;SDS011;2025;48.260;16.432;2022-11-23T05:45:20;36.53;;;14.30;;
4021;SDS011;2025;48.260;16.432;2022-11-23T05:47:50;34.17;;;13.43;;
4021;SDS011;2025;48.260;16.432;2022-11-23T05:50:17;35.70;;;13.88;;
4021;SDS011;2025;48.260;16.432;2022-11-23T05:52:46;35.42;;;15.10;;
4021;SDS011;2025;48.260;16.432;2022-11-23T05:55:13;34.20;;;12.80;;
4021;SDS011;2025;48.260;16.432;2022-11-23T05:57:41;34.08;;;12.73;;
4021;SDS011;2025;48.260;16.432;2022-11-23T06:00:08;31.70;;;12.05;;
4021;SDS011;2025;48.260;16.432;2022-11-23T06:02:36;26.52;;;11.05;;
4021;SDS011;2025;48.260;16.432;2022-11-23T06:05:03;29.73;;;12.70;;
4021;SDS011;2025;48.260;16.432;2022-11-23T06:07:31;28.73;;;13.68;;
4021;SDS011;2025;48.260;16.432;2022-11-23T06:09:59;29.95;;;11.75;;
4021;SDS011;2025;48.260;16.432;2022-11-23T06:12:26;26.98;;;13.63;;
4021;SDS011;2025;48.260;16.432;2022-11-23T06:14:54;27.83;;;10.90;;
4021;SDS011;2025;48.260;16.432;2022-11-23T06:17:21;28.95;;;11.32;;
4021;SDS011;2025;48.260;16.432;2022-11-23T06:19:49;26.77;;;11.20;;
4021;SDS011;2025;48.260;16.432;2022-11-23T06:22:16;30.75;;;11.75;;
4021;SDS011;2025;48.260;16.432;2022-11-23T06:24:43;32.63;;;11.82;;
4021;SDS011;2025;48.260;16.432;2022-11-23T06:27:11;31.88;;;11.15;;
4021;SDS011;2025;48.260;16.432;2022-11-23T06:29:41;25.38;;;11.13;;
4021;SDS011;2025;48.260;16.432;2022-11-23T06:32:08;24.50;;;9.75;;
4021;SDS011;2025;48.260;16.432;2022-11-23T06:34:35;25.50;;;10.18;;
4021;SDS011;2025;48.260;16.432;2022-11-23T06:37:02;25.90;;;10.40;;
4021;SDS011;2025;48.260;16.432;2022-11-23T06:39:29;28.08;;;10.93;;
4021;SDS011;2025;48.260;16.432;2022-11-23T06:41:56;23.52;;;10.00;;
4021;SDS011;2025;48.260;16.432;2022-11-23T06:44:24;25.83;;;9.15;;
4021;SDS011;2025;48.260;16.432;2022-11-23T06:46:51;26.52;;;9.07;;
4021;SDS011;2025;48.260;16.432;2022-11-23T06:49:18;24.33;;;9.85;;
4021;SDS011;2025;48.260;16.432;2022-11-23T06:51:45;24.23;;;11.10;;
4021;SDS011;2025;48.260;16.432;2022-11-23T06:54:13;27.77;;;10.98;;
4021;SDS011;2025;48.260;16.432;2022-11-23T06:56:40;29.52;;;10.48;;
4021;SDS011;2025;48.260;16.432;2022-11-23T06:59:07;28.65;;;11.25;;
4021;SDS011;2025;48.260;16.432;2022-11-23T07:01:35;22.05;;;8.70;;
4021;SDS011;2025;48.260;16.432;2022-11-23T07:04:02;24.58;;;9.30;;
4021;SDS011;2025;48.260;16.432;2022-11-23T07:06:30;28.20;;;10.48;;
4021;SDS011;2025;48.260;16.432;2022-11-23T07:08:56;25.17;;;9.80;;
4021;SDS011;2025;48.260;16.432;2022-11-23T07:11:23;25.33;;;9.75;;
4021;SDS011;2025;48.260;16.432;2022-11-23T07:13:50;24.33;;;9.85;;
4021;SDS011;2025;48.260;16.432;2022-11-23T07:16:17;23.02;;;10.18;;
4021;SDS011;2025;48.260;16.432;2022-11-23T07:18:46;24.48;;;10.05;;
4021;SDS011;2025;48.260;16.432;2022-11-23T07:21:13;24.20;;;9.98;;
4021;SDS011;2025;48.260;16.432;2022-11-23T07:23:40;21.50;;;9.45;;
4021;SDS011;2025;48.260;16.432;2022-11-23T07:26:07;22.33;;;9.45;;
4021;SDS011;2025;48.260;16.432;2022-11-23T07:28:34;25.60;;;10.98;;
4021;SDS011;2025;48.260;16.432;2022-11-23T07:31:01;23.25;;;10.30;;
4021;SDS011;2025;48.260;16.432;2022-11-23T07:33:28;21.95;;;8.77;;
4021;SDS011;2025;48.260;16.432;2022-11-23T07:35:59;19.63;;;8.68;;
4021;SDS011;2025;48.260;16.432;2022-11-23T07:38:26;19.63;;;7.78;;
4021;SDS011;2025;48.260;16.432;2022-11-23T07:40:53;15.02;;;6.70;;
4021;SDS011;2025;48.260;16.432;2022-11-23T07:43:23;16.40;;;7.85;;
4021;SDS011;2025;48.260;16.432;2022-11-23T07:45:50;19.10;;;7.40;;
4021;SDS011;2025;48.260;16.432;2022-11-23T07:48:16;17.70;;;6.68;;
4021;SDS011;2025;48.260;16.432;2022-11-23T07:50:43;17.95;;;6.93;;
4021;SDS011;2025;48.260;16.432;2022-11-23T07:53:12;18.27;;;7.13;;
4021;SDS011;2025;48.260;16.432;2022-11-23T07:55:39;17.30;;;6.68;;
4021;SDS011;2025;48.260;16.432;2022-11-23T07:58:06;16.92;;;6.53;;
4021;SDS011;2025;48.260;16.432;2022-11-23T08:00:33;17.35;;;6.57;;
4021;SDS011;2025;48.260;16.432;2022-11-23T08:03:00;14.98;;;6.10;;
4021;SDS011;2025;48.260;16.432;2022-11-23T08:05:27;17.27;;;6.93;;
4021;SDS011;2025;48.260;16.432;2022-11-23T08:07:56;16.83;;;7.20;;
4021;SDS011;2025;48.260;16.432;2022-11-23T08:10:25;15.07;;;5.75;;
4021;SDS011;2025;48.260;16.432;2022-11-23T08:12:55;18.15;;;6.78;;
4021;SDS011;2025;48.260;16.432;2022-11-23T08:15:23;15.98;;;5.95;;
4021;SDS011;2025;48.260;16.432;2022-11-23T08:17:53;15.10;;;5.95;;
4021;SDS011;2025;48.260;16.432;2022-11-23T08:20:20;18.98;;;8.68;;
4021;SDS011;2025;48.260;16.432;2022-11-23T08:22:47;17.40;;;7.43;;
4021;SDS011;2025;48.260;16.432;2022-11-23T08:25:14;14.07;;;5.10;;
4021;SDS011;2025;48.260;16.432;2022-11-23T08:27:42;15.52;;;6.85;;
4021;SDS011;2025;48.260;16.432;2022-11-23T08:30:10;19.20;;;7.05;;
4021;SDS011;2025;48.260;16.432;2022-11-23T08:32:37;15.52;;;6.57;;
4021;SDS011;2025;48.260;16.432;2022-11-23T08:35:04;18.27;;;7.43;;
4021;SDS011;2025;48.260;16.432;2022-11-23T08:37:32;13.43;;;6.30;;
4021;SDS011;2025;48.260;16.432;2022-11-23T08:39:59;15.85;;;6.22;;
4021;SDS011;2025;48.260;16.432;2022-11-23T08:42:26;14.20;;;5.78;;
4021;SDS011;2025;48.260;16.432;2022-11-23T08:44:55;13.88;;;5.65;;
4021;SDS011;2025;48.260;16.432;2022-11-23T08:47:24;15.80;;;6.43;;
4021;SDS011;2025;48.260;16.432;2022-11-23T08:49:51;13.90;;;4.90;;
4021;SDS011;2025;48.260;16.432;2022-11-23T08:52:18;16.35;;;6.47;;
4021;SDS011;2025;48.260;16.432;2022-11-23T08:54:45;18.55;;;6.32;;
4021;SDS011;2025;48.260;16.432;2022-11-23T08:57:12;15.15;;;5.78;;
4021;SDS011;2025;48.260;16.432;2022-11-23T08:59:39;16.55;;;6.78;;
4021;SDS011;2025;48.260;16.432;2022-11-23T09:02:08;15.98;;;6.13;;
4021;SDS011;2025;48.260;16.432;2022-11-23T09:04:36;17.08;;;6.13;;
4021;SDS011;2025;48.260;16.432;2022-11-23T09:07:03;16.25;;;6.75;;
4021;SDS011;2025;48.260;16.432;2022-11-23T09:09:29;14.25;;;5.50;;
4021;SDS011;2025;48.260;16.432;2022-11-23T09:11:56;16.63;;;7.28;;
4021;SDS011;2025;48.260;16.432;2022-11-23T09:14:23;14.23;;;4.93;;
4021;SDS011;2025;48.260;16.432;2022-11-23T09:16:51;15.50;;;5.85;;
4021;SDS011;2025;48.260;16.432;2022-11-23T09:19:20;16.50;;;7.20;;
4021;SDS011;2025;48.260;16.432;2022-11-23T09:21:47;16.20;;;6.78;;
4021;SDS011;2025;48.260;16.432;2022-11-23T09:24:14;15.48;;;6.93;;
4021;SDS011;2025;48.260;16.432;2022-11-23T09:26:41;15.32;;;6.03;;
4021;SDS011;2025;48.260;16.432;2022-11-23T09:29:08;13.60;;;5.28;;
4021;SDS011;2025;48.260;16.432;2022-11-23T09:31:35;14.27;;;5.63;;
4021;SDS011;2025;48.260;16.432;2022-11-23T09:34:03;18.17;;;6.05;;
4021;SDS011;2025;48.260;16.432;2022-11-23T09:36:31;17.50;;;6.10;;
4021;SDS011;2025;48.260;16.432;2022-11-23T09:38:58;13.93;;;5.32;;
4021;SDS011;2025;48.260;16.432;2022-11-23T09:41:36;15.02;;;6.50;;
4021;SDS011;2025;48.260;16.432;2022-11-23T09:44:34;11.80;;;4.05;;
4021;SDS011;2025;48.260;16.432;2022-11-23T09:47:18;12.95;;;4.38;;
4021;SDS011;2025;48.260;16.432;2022-11-23T09:50:02;11.10;;;4.50;;
4021;SDS011;2025;48.260;16.432;2022-11-23T09:52:39;11.05;;;4.68;;
4021;SDS011;2025;48.260;16.432;2022-11-23T09:55:12;11.80;;;5.22;;
4021;SDS011;2025;48.260;16.432;2022-11-23T09:57:43;11.88;;;4.30;;
4021;SDS011;2025;48.260;16.432;2022-11-23T10:02:44;11.27;;;4.85;;
4021;SDS011;2025;48.260;16.432;2022-11-23T10:05:13;9.85;;;3.75;;
4021;SDS011;2025;48.260;16.432;2022-11-23T10:07:48;9.07;;;3.20;;
4021;SDS011;2025;48.260;16.432;2022-11-23T10:10:38;10.27;;;3.42;;
4021;SDS011;2025;48.260;16.432;2022-11-23T10:13:13;11.32;;;4.95;;
4021;SDS011;2025;48.260;16.432;2022-11-23T10:15:57;9.82;;;3.83;;
4021;SDS011;2025;48.260;16.432;2022-11-23T10:18:52;10.45;;;3.83;;
4021;SDS011;2025;48.260;16.432;2022-11-23T10:21:27;9.95;;;3.45;;
4021;SDS011;2025;48.260;16.432;2022-11-23T10:24:08;10.50;;;5.32;;
4021;SDS011;2025;48.260;16.432;2022-11-23T10:26:43;8.70;;;4.13;;
4021;SDS011;2025;48.260;16.432;2022-11-23T10:29:14;8.80;;;4.15;;
4021;SDS011;2025;48.260;16.432;2022-11-23T10:31:43;9.02;;;3.80;;
4021;SDS011;2025;48.260;16.432;2022-11-23T10:34:13;8.73;;;3.22;;
4021;SDS011;2025;48.260;16.432;2022-11-23T10:36:43;7.22;;;3.22;;
4021;SDS011;2025;48.260;16.432;2022-11-23T10:39:15;8.65;;;3.75;;
4021;SDS011;2025;48.260;16.432;2022-11-23T10:41:46;8.80;;;3.00;;
4021;SDS011;2025;48.260;16.432;2022-11-23T10:44:17;7.70;;;3.10;;
4021;SDS011;2025;48.260;16.432;2022-11-23T10:46:52;8.00;;;3.40;;
4021;SDS011;2025;48.260;16.432;2022-11-23T10:49:20;7.35;;;3.47;;
4021;SDS011;2025;48.260;16.432;2022-11-23T10:51:50;8.98;;;3.63;;
4021;SDS011;2025;48.260;16.432;2022-11-23T10:54:21;8.77;;;3.35;;
4021;SDS011;2025;48.260;16.432;2022-11-23T10:56:51;7.97;;;3.30;;
4021;SDS011;2025;48.260;16.432;2022-11-23T10:59:33;8.18;;;3.35;;
4021;SDS011;2025;48.260;16.432;2022-11-23T11:02:09;8.43;;;3.13;;
4021;SDS011;2025;48.260;16.432;2022-11-23T11:04:42;7.50;;;2.38;;
4021;SDS011;2025;48.260;16.432;2022-11-23T11:07:21;8.63;;;3.08;;
4021;SDS011;2025;48.260;16.432;2022-11-23T11:10:04;8.27;;;3.00;;
4021;SDS011;2025;48.260;16.432;2022-11-23T11:12:33;8.30;;;4.97;;
4021;SDS011;2025;48.260;16.432;2022-11-23T11:15:01;8.38;;;4.60;;
4021;SDS011;2025;48.260;16.432;2022-11-23T11:17:39;8.10;;;2.88;;
4021;SDS011;2025;48.260;16.432;2022-11-23T11:20:23;6.35;;;2.50;;
4021;SDS011;2025;48.260;16.432;2022-11-23T11:23:03;6.28;;;2.83;;
4021;SDS011;2025;48.260;16.432;2022-11-23T11:25:43;8.30;;;2.67;;
4021;SDS011;2025;48.260;16.432;2022-11-23T11:28:17;7.38;;;2.15;;
4021;SDS011;2025;48.260;16.432;2022-11-23T11:30:53;7.38;;;2.35;;
4021;SDS011;2025;48.260;16.432;2022-11-23T11:33:27;9.07;;;2.30;;
4021;SDS011;2025;48.260;16.432;2022-11-23T11:38:28;9.30;;;5.00;;
4021;SDS011;2025;48.260;16.432;2022-11-23T11:41:01;8.45;;;2.80;;
4021;SDS011;2025;48.260;16.432;2022-11-23T11:43:33;5.90;;;2.22;;
4021;SDS011;2025;48.260;16.432;2022-11-23T11:46:04;7.18;;;2.03;;
4021;SDS011;2025;48.260;16.432;2022-11-23T11:48:38;6.88;;;2.85;;
4021;SDS011;2025;48.260;16.432;2022-11-23T11:51:11;5.70;;;2.13;;
4021;SDS011;2025;48.260;16.432;2022-11-23T11:53:47;6.90;;;2.22;;
4021;SDS011;2025;48.260;16.432;2022-11-23T11:56:23;6.90;;;3.33;;
4021;SDS011;2025;48.260;16.432;2022-11-23T11:58:55;6.47;;;2.42;;
4021;SDS011;2025;48.260;16.432;2022-11-23T12:01:28;6.97;;;2.45;;
4021;SDS011;2025;48.260;16.432;2022-11-23T12:04:04;5.43;;;2.08;;
4021;SDS011;2025;48.260;16.432;2022-11-23T12:06:34;6.80;;;2.80;;
4021;SDS011;2025;48.260;16.432;2022-11-23T12:09:09;6.03;;;1.70;;
4021;SDS011;2025;48.260;16.432;2022-11-23T12:11:43;6.00;;;2.47;;
4021;SDS011;2025;48.260;16.432;2022-11-23T12:14:11;6.95;;;2.53;;
4021;SDS011;2025;48.260;16.432;2022-11-23T12:16:42;6.13;;;2.10;;
4021;SDS011;2025;48.260;16.432;2022-11-23T12:19:18;5.60;;;1.70;;
4021;SDS011;2025;48.260;16.432;2022-11-23T12:21:59;5.60;;;2.35;;
4021;SDS011;2025;48.260;16.432;2022-11-23T12:24:51;5.38;;;1.73;;
4021;SDS011;2025;48.260;16.432;2022-11-23T12:27:32;5.82;;;2.50;;
4021;SDS011;2025;48.260;16.432;2022-11-23T12:32:49;6.32;;;1.77;;
4021;SDS011;2025;48.260;16.432;2022-11-23T12:35:32;5.75;;;1.58;;
4021;SDS011;2025;48.260;16.432;2022-11-23T12:38:14;4.97;;;1.50;;
4021;SDS011;2025;48.260;16.432;2022-11-23T12:40:59;5.43;;;2.22;;
4021;SDS011;2025;48.260;16.432;2022-11-23T12:43:48;6.22;;;1.63;;
4021;SDS011;2025;48.260;16.432;2022-11-23T12:46:27;6.85;;;1.98;;
4021;SDS011;2025;48.260;16.432;2022-11-23T12:49:07;7.57;;;2.72;;
4021;SDS011;2025;48.260;16.432;2022-11-23T12:51:48;5.97;;;1.42;;
4021;SDS011;2025;48.260;16.432;2022-11-23T12:54:25;5.70;;;1.40;;
4021;SDS011;2025;48.260;16.432;2022-11-23T12:57:08;6.20;;;3.17;;
4021;SDS011;2025;48.260;16.432;2022-11-23T12:59:43;5.28;;;1.30;;
4021;SDS011;2025;48.260;16.432;2022-11-23T13:02:23;5.47;;;1.67;;
4021;SDS011;2025;48.260;16.432;2022-11-23T13:05:19;6.70;;;1.75;;
4021;SDS011;2025;48.260;16.432;2022-11-23T13:08:07;5.88;;;1.77;;
4021;SDS011;2025;48.260;16.432;2022-11-23T13:10:53;5.60;;;2.60;;
4021;SDS011;2025;48.260;16.432;2022-11-23T13:13:41;4.18;;;1.30;;
4021;SDS011;2025;48.260;16.432;2022-11-23T13:16:25;5.22;;;2.17;;
4021;SDS011;2025;48.260;16.432;2022-11-23T13:19:08;4.90;;;1.35;;
4021;SDS011;2025;48.260;16.432;2022-11-23T13:21:45;7.88;;;2.20;;
4021;SDS011;2025;48.260;16.432;2022-11-23T13:24:23;5.53;;;1.33;;
4021;SDS011;2025;48.260;16.432;2022-11-23T13:29:53;5.20;;;1.20;;
4021;SDS011;2025;48.260;16.432;2022-11-23T13:32:52;5.40;;;3.00;;
4021;SDS011;2025;48.260;16.432;2022-11-23T13:38:18;4.38;;;3.20;;
4021;SDS011;2025;48.260;16.432;2022-11-23T13:44:23;4.43;;;1.48;;
4021;SDS011;2025;48.260;16.432;2022-11-23T13:46:59;4.80;;;1.15;;
4021;SDS011;2025;48.260;16.432;2022-11-23T13:49:33;3.85;;;1.35;;
4021;SDS011;2025;48.260;16.432;2022-11-23T13:52:13;4.55;;;1.50;;
4021;SDS011;2025;48.260;16.432;2022-11-23T14:00:58;5.65;;;1.67;;
4021;SDS011;2025;48.260;16.432;2022-11-23T14:06:27;5.10;;;1.48;;
4021;SDS011;2025;48.260;16.432;2022-11-23T14:09:08;4.95;;;1.65;;
4021;SDS011;2025;48.260;16.432;2022-11-23T14:11:47;4.60;;;1.15;;
4021;SDS011;2025;48.260;16.432;2022-11-23T14:14:28;5.30;;;1.67;;
4021;SDS011;2025;48.260;16.432;2022-11-23T14:20:19;6.45;;;2.03;;
4021;SDS011;2025;48.260;16.432;2022-11-23T14:23:04;5.20;;;1.50;;
4021;SDS011;2025;48.260;16.432;2022-11-23T14:25:51;5.45;;;1.83;;
4021;SDS011;2025;48.260;16.432;2022-11-23T14:28:33;5.45;;;1.45;;
4021;SDS011;2025;48.260;16.432;2022-11-23T14:31:14;6.55;;;1.80;;
4021;SDS011;2025;48.260;16.432;2022-11-23T14:33:50;4.70;;;1.58;;
4021;SDS011;2025;48.260;16.432;2022-11-23T14:36:24;5.82;;;1.15;;
4021;SDS011;2025;48.260;16.432;2022-11-23T14:39:14;5.72;;;2.75;;
4021;SDS011;2025;48.260;16.432;2022-11-23T14:41:58;6.68;;;3.92;;
4021;SDS011;2025;48.260;16.432;2022-11-23T14:44:28;4.78;;;1.67;;
4021;SDS011;2025;48.260;16.432;2022-11-23T14:47:01;6.35;;;2.20;;
4021;SDS011;2025;48.260;16.432;2022-11-23T14:49:29;6.80;;;2.63;;
4021;SDS011;2025;48.260;16.432;2022-11-23T14:51:56;5.35;;;2.20;;
4021;SDS011;2025;48.260;16.432;2022-11-23T14:54:25;6.50;;;2.22;;
4021;SDS011;2025;48.260;16.432;2022-11-23T14:56:54;5.38;;;2.25;;
4021;SDS011;2025;48.260;16.432;2022-11-23T14:59:24;6.35;;;2.25;;
4021;SDS011;2025;48.260;16.432;2022-11-23T15:01:55;7.10;;;2.80;;
4021;SDS011;2025;48.260;16.432;2022-11-23T15:04:25;5.57;;;1.75;;
4021;SDS011;2025;48.260;16.432;2022-11-23T15:06:59;7.30;;;2.25;;
4021;SDS011;2025;48.260;16.432;2022-11-23T15:09:37;7.03;;;3.10;;
4021;SDS011;2025;48.260;16.432;2022-11-23T15:14:46;6.55;;;1.80;;
4021;SDS011;2025;48.260;16.432;2022-11-23T15:17:15;7.53;;;2.60;;
4021;SDS011;2025;48.260;16.432;2022-11-23T15:19:51;5.95;;;2.67;;
4021;SDS011;2025;48.260;16.432;2022-11-23T15:22:19;7.90;;;2.92;;
4021;SDS011;2025;48.260;16.432;2022-11-23T15:24:47;6.78;;;2.63;;
4021;SDS011;2025;48.260;16.432;2022-11-23T15:27:15;7.25;;;2.42;;
4021;SDS011;2025;48.260;16.432;2022-11-23T15:29:50;6.13;;;2.78;;
4021;SDS011;2025;48.260;16.432;2022-11-23T15:32:20;6.80;;;2.90;;
4021;SDS011;2025;48.260;16.432;2022-11-23T15:34:49;7.53;;;2.58;;
4021;SDS011;2025;48.260;16.432;2022-11-23T15:37:19;7.28;;;5.85;;
4021;SDS011;2025;48.260;16.432;2022-11-23T15:39:48;8.60;;;3.45;;
4021;SDS011;2025;48.260;16.432;2022-11-23T15:42:17;7.13;;;2.97;;